Bradford Regional Airport
KBFD : now visible

Airfield :











YOU CAN JOIN US ON...

 
LOGIN :

Register | Disclaimer

   EN    FR    IT 

 









Legend :    VFR   Marginal VFR   IFR   Intensive IFR   Very Intensive IFR
Visi :
Ceiling :
>= 8 km
>= 3000ft
5 to 8 km
1000 to 3000 ft
1500m to 5 km
500 to 1000 ft
800 to 1500m
200 to 500 ft
< 800m
< 200 ft
Symbols :   Thunderstorms  Fog  Heavy snow  Heavy precipitations  Wind > 20 kt







- Airport Elevation : 2143 ft
- IATA code : BFD


KBFD - Bradford Regional

CURRENT METAR :
  • 230153Z AUTO 31020G28KT 2 1/2SM -SN SCT015 BKN023 OVC028 M04/M08 A2978 RMK AO2 PK WND 32030/0101 SLP104 P0000 T10441078

EXPIRED METARs :
  • 230104Z AUTO 31019G30KT 3SM -SN FEW013 BKN023 OVC080 M04/M07 A2975 RMK AO2 PK WND 32030/0101 P0000 T10441072
  • 230053Z AUTO 31016G25KT 2SM -SN SCT016 OVC023 M04/M07 A2974 RMK AO2 PK WND 30027/0027 SLP092 P0000 T10391067
  • 230026Z AUTO 31017G24KT 1 1/2SM -SN BR BKN016 OVC023 M04/M06 A2973 RMK AO2 PK WND 32026/0000 P0000 T10391061
  • 230011Z AUTO 31013G24KT 2SM -SN BKN016 BKN023 OVC028 M03/M06 A2972 RMK AO2 PK WND 32026/0000 P0000 T10331061
  • 222353Z AUTO 31017G26KT 5SM -SN BKN022 BKN027 OVC040 M03/M07 A2971 RMK AO2 PK WND 30029/2321 UPB21E40SNE21B40 SLP079 P0000 60001 T10281067 10000 21028 53030

TAF KBFD
Valid from the 23 at 00:00 until the 24 at 00:00 UTC


222326Z 2300/2324 31018G28KT 4SM -SN BKN022 OVC035
TEMPO 2300/2303 3/4SM -SN OVC012
FM230300 31015G25KT 5SM -SHSN OVC025
FM230700 31014G24KT P6SM VCSH BKN025
FM231200 30014G24KT P6SM SCT025 BKN035
FM231500 31015G25KT P6SM SCT035
FM232200 30012KT P6SM SKC
KZOB FIR / North America



MET'MAP, your aeronautical weather chart ! - Copyright ORBIFLY December 2007 - Disclaimer

ORBIFLY MET'MAP TEAM :

Programming & Development : Alexandra Zaïnal
Concept & Development : Baudouin d'Aumeries
Co-Development & Prog : Marc-Olivier Méhu
Technical & hardware support : Manuel Goepfert

Contact : metmap@orbifly.com




SOURCES & CREDITS :

   NOAA       Earth
Advisory